sensor_id;sensor_type;location;lat;lon;timestamp;P1;durP1;ratioP1;P2;durP2;ratioP2
43817;SDS011;29868;47.360;18.984;2023-07-13T00:00:24;7.15;;;3.70;;
43817;SDS011;29868;47.360;18.984;2023-07-13T00:02:50;8.02;;;3.70;;
43817;SDS011;29868;47.360;18.984;2023-07-13T00:05:18;6.70;;;3.45;;
43817;SDS011;29868;47.360;18.984;2023-07-13T00:07:45;8.30;;;3.80;;
43817;SDS011;29868;47.360;18.984;2023-07-13T00:10:11;7.60;;;3.78;;
43817;SDS011;29868;47.360;18.984;2023-07-13T00:12:37;8.00;;;3.83;;
43817;SDS011;29868;47.360;18.984;2023-07-13T00:15:05;7.38;;;3.80;;
43817;SDS011;29868;47.360;18.984;2023-07-13T00:17:42;6.28;;;3.40;;
43817;SDS011;29868;47.360;18.984;2023-07-13T00:20:11;9.52;;;3.20;;
43817;SDS011;29868;47.360;18.984;2023-07-13T00:22:37;7.10;;;3.10;;
43817;SDS011;29868;47.360;18.984;2023-07-13T00:25:02;6.93;;;2.80;;
43817;SDS011;29868;47.360;18.984;2023-07-13T00:27:28;7.32;;;3.10;;
43817;SDS011;29868;47.360;18.984;2023-07-13T00:29:57;8.07;;;3.00;;
43817;SDS011;29868;47.360;18.984;2023-07-13T00:32:23;5.13;;;2.92;;
43817;SDS011;29868;47.360;18.984;2023-07-13T00:34:50;5.90;;;2.72;;
43817;SDS011;29868;47.360;18.984;2023-07-13T00:37:16;4.97;;;2.90;;
43817;SDS011;29868;47.360;18.984;2023-07-13T00:39:42;8.43;;;2.72;;
43817;SDS011;29868;47.360;18.984;2023-07-13T00:42:07;5.82;;;3.00;;
43817;SDS011;29868;47.360;18.984;2023-07-13T00:44:33;5.88;;;3.10;;
43817;SDS011;29868;47.360;18.984;2023-07-13T00:46:58;6.47;;;3.13;;
43817;SDS011;29868;47.360;18.984;2023-07-13T00:49:24;9.68;;;3.33;;
43817;SDS011;29868;47.360;18.984;2023-07-13T00:51:56;7.68;;;3.85;;
43817;SDS011;29868;47.360;18.984;2023-07-13T00:54:29;9.00;;;3.60;;
43817;SDS011;29868;47.360;18.984;2023-07-13T00:57:00;8.82;;;3.75;;
43817;SDS011;29868;47.360;18.984;2023-07-13T00:59:29;6.82;;;3.25;;
43817;SDS011;29868;47.360;18.984;2023-07-13T01:01:56;9.00;;;3.60;;
43817;SDS011;29868;47.360;18.984;2023-07-13T01:04:23;7.32;;;3.30;;
43817;SDS011;29868;47.360;18.984;2023-07-13T01:06:50;7.53;;;3.53;;
43817;SDS011;29868;47.360;18.984;2023-07-13T01:09:16;7.35;;;3.75;;
43817;SDS011;29868;47.360;18.984;2023-07-13T01:11:41;7.90;;;3.60;;
43817;SDS011;29868;47.360;18.984;2023-07-13T01:14:07;6.65;;;3.30;;
43817;SDS011;29868;47.360;18.984;2023-07-13T01:16:33;5.57;;;3.28;;
43817;SDS011;29868;47.360;18.984;2023-07-13T01:19:00;5.40;;;3.10;;
43817;SDS011;29868;47.360;18.984;2023-07-13T01:21:29;5.85;;;3.30;;
43817;SDS011;29868;47.360;18.984;2023-07-13T01:23:57;6.22;;;3.55;;
43817;SDS011;29868;47.360;18.984;2023-07-13T01:26:22;7.60;;;3.30;;
43817;SDS011;29868;47.360;18.984;2023-07-13T01:28:48;6.50;;;3.42;;
43817;SDS011;29868;47.360;18.984;2023-07-13T01:31:13;6.10;;;3.30;;
43817;SDS011;29868;47.360;18.984;2023-07-13T01:33:39;7.90;;;3.22;;
43817;SDS011;29868;47.360;18.984;2023-07-13T01:36:09;8.10;;;4.05;;
43817;SDS011;29868;47.360;18.984;2023-07-13T01:38:35;6.75;;;3.13;;
43817;SDS011;29868;47.360;18.984;2023-07-13T01:41:02;5.45;;;3.10;;
43817;SDS011;29868;47.360;18.984;2023-07-13T01:43:28;7.15;;;2.90;;
43817;SDS011;29868;47.360;18.984;2023-07-13T01:45:53;5.78;;;3.17;;
43817;SDS011;29868;47.360;18.984;2023-07-13T01:48:19;7.95;;;3.20;;
43817;SDS011;29868;47.360;18.984;2023-07-13T01:50:45;5.47;;;2.97;;
43817;SDS011;29868;47.360;18.984;2023-07-13T01:53:12;5.75;;;3.03;;
43817;SDS011;29868;47.360;18.984;2023-07-13T01:55:37;9.55;;;3.38;;
43817;SDS011;29868;47.360;18.984;2023-07-13T01:58:03;6.25;;;3.55;;
43817;SDS011;29868;47.360;18.984;2023-07-13T02:00:29;6.68;;;3.50;;
43817;SDS011;29868;47.360;18.984;2023-07-13T02:02:54;7.18;;;3.25;;
43817;SDS011;29868;47.360;18.984;2023-07-13T02:05:20;6.28;;;3.42;;
43817;SDS011;29868;47.360;18.984;2023-07-13T02:07:45;5.95;;;3.17;;
43817;SDS011;29868;47.360;18.984;2023-07-13T02:10:11;6.47;;;3.50;;
43817;SDS011;29868;47.360;18.984;2023-07-13T02:12:37;6.82;;;3.67;;
43817;SDS011;29868;47.360;18.984;2023-07-13T02:15:04;8.02;;;3.70;;
43817;SDS011;29868;47.360;18.984;2023-07-13T02:17:30;5.97;;;3.30;;
43817;SDS011;29868;47.360;18.984;2023-07-13T02:19:57;7.45;;;3.60;;
43817;SDS011;29868;47.360;18.984;2023-07-13T02:22:22;7.82;;;3.85;;
43817;SDS011;29868;47.360;18.984;2023-07-13T02:24:48;6.68;;;4.03;;
43817;SDS011;29868;47.360;18.984;2023-07-13T02:27:14;6.97;;;4.03;;
43817;SDS011;29868;47.360;18.984;2023-07-13T02:29:39;9.10;;;4.10;;
43817;SDS011;29868;47.360;18.984;2023-07-13T02:32:05;11.93;;;3.88;;
43817;SDS011;29868;47.360;18.984;2023-07-13T02:34:31;9.45;;;3.95;;
43817;SDS011;29868;47.360;18.984;2023-07-13T02:36:56;8.35;;;4.10;;
43817;SDS011;29868;47.360;18.984;2023-07-13T02:39:22;7.60;;;3.75;;
43817;SDS011;29868;47.360;18.984;2023-07-13T02:41:48;10.25;;;4.10;;
43817;SDS011;29868;47.360;18.984;2023-07-13T02:44:14;8.93;;;4.10;;
43817;SDS011;29868;47.360;18.984;2023-07-13T02:46:40;10.73;;;4.40;;
43817;SDS011;29868;47.360;18.984;2023-07-13T02:49:05;6.93;;;4.07;;
43817;SDS011;29868;47.360;18.984;2023-07-13T02:51:31;7.60;;;4.15;;
43817;SDS011;29868;47.360;18.984;2023-07-13T02:53:59;8.65;;;4.40;;
43817;SDS011;29868;47.360;18.984;2023-07-13T02:56:29;10.43;;;4.07;;
43817;SDS011;29868;47.360;18.984;2023-07-13T02:58:55;9.35;;;4.22;;
43817;SDS011;29868;47.360;18.984;2023-07-13T03:01:21;10.45;;;4.35;;
43817;SDS011;29868;47.360;18.984;2023-07-13T03:03:48;8.32;;;4.18;;
43817;SDS011;29868;47.360;18.984;2023-07-13T03:06:15;14.10;;;5.65;;
43817;SDS011;29868;47.360;18.984;2023-07-13T03:08:41;9.40;;;4.85;;
43817;SDS011;29868;47.360;18.984;2023-07-13T03:11:08;13.35;;;5.65;;
43817;SDS011;29868;47.360;18.984;2023-07-13T03:13:39;95.75;;;32.33;;
43817;SDS011;29868;47.360;18.984;2023-07-13T03:16:06;97.32;;;32.65;;
43817;SDS011;29868;47.360;18.984;2023-07-13T03:18:33;40.28;;;15.75;;
43817;SDS011;29868;47.360;18.984;2023-07-13T03:20:58;21.50;;;9.20;;
43817;SDS011;29868;47.360;18.984;2023-07-13T03:23:24;17.13;;;7.43;;
43817;SDS011;29868;47.360;18.984;2023-07-13T03:25:49;16.65;;;7.30;;
43817;SDS011;29868;47.360;18.984;2023-07-13T03:28:15;14.32;;;6.18;;
43817;SDS011;29868;47.360;18.984;2023-07-13T03:30:41;8.70;;;4.95;;
43817;SDS011;29868;47.360;18.984;2023-07-13T03:33:07;9.57;;;4.97;;
43817;SDS011;29868;47.360;18.984;2023-07-13T03:35:33;8.43;;;4.45;;
43817;SDS011;29868;47.360;18.984;2023-07-13T03:38:00;7.20;;;4.50;;
43817;SDS011;29868;47.360;18.984;2023-07-13T03:40:26;6.78;;;4.00;;
43817;SDS011;29868;47.360;18.984;2023-07-13T03:42:52;7.18;;;3.97;;
43817;SDS011;29868;47.360;18.984;2023-07-13T03:45:18;8.32;;;3.60;;
43817;SDS011;29868;47.360;18.984;2023-07-13T03:47:44;9.00;;;3.58;;
43817;SDS011;29868;47.360;18.984;2023-07-13T03:50:10;7.57;;;3.50;;
43817;SDS011;29868;47.360;18.984;2023-07-13T03:52:35;7.55;;;3.55;;
43817;SDS011;29868;47.360;18.984;2023-07-13T03:55:01;7.45;;;3.70;;
43817;SDS011;29868;47.360;18.984;2023-07-13T03:57:26;5.90;;;3.40;;
43817;SDS011;29868;47.360;18.984;2023-07-13T03:59:51;7.95;;;3.80;;
43817;SDS011;29868;47.360;18.984;2023-07-13T04:02:17;8.15;;;3.78;;
43817;SDS011;29868;47.360;18.984;2023-07-13T04:04:42;7.32;;;3.78;;
43817;SDS011;29868;47.360;18.984;2023-07-13T04:07:08;9.23;;;3.47;;
43817;SDS011;29868;47.360;18.984;2023-07-13T04:09:34;6.32;;;3.30;;
43817;SDS011;29868;47.360;18.984;2023-07-13T04:12:06;6.72;;;3.33;;
43817;SDS011;29868;47.360;18.984;2023-07-13T04:14:31;7.90;;;3.08;;
43817;SDS011;29868;47.360;18.984;2023-07-13T04:16:57;6.45;;;3.42;;
43817;SDS011;29868;47.360;18.984;2023-07-13T04:19:23;7.03;;;3.05;;
43817;SDS011;29868;47.360;18.984;2023-07-13T04:21:48;6.70;;;3.15;;
43817;SDS011;29868;47.360;18.984;2023-07-13T04:24:14;5.10;;;2.95;;
43817;SDS011;29868;47.360;18.984;2023-07-13T04:26:39;7.22;;;3.25;;
43817;SDS011;29868;47.360;18.984;2023-07-13T04:29:05;7.22;;;3.33;;
43817;SDS011;29868;47.360;18.984;2023-07-13T04:31:31;6.95;;;3.35;;
43817;SDS011;29868;47.360;18.984;2023-07-13T04:33:58;7.60;;;3.13;;
43817;SDS011;29868;47.360;18.984;2023-07-13T04:36:23;9.48;;;3.92;;
43817;SDS011;29868;47.360;18.984;2023-07-13T04:38:52;6.35;;;3.40;;
43817;SDS011;29868;47.360;18.984;2023-07-13T04:41:19;5.25;;;3.40;;
43817;SDS011;29868;47.360;18.984;2023-07-13T04:43:45;7.25;;;4.10;;
43817;SDS011;29868;47.360;18.984;2023-07-13T04:46:11;10.18;;;3.53;;
43817;SDS011;29868;47.360;18.984;2023-07-13T04:48:40;8.20;;;4.13;;
43817;SDS011;29868;47.360;18.984;2023-07-13T04:51:06;7.35;;;3.53;;
43817;SDS011;29868;47.360;18.984;2023-07-13T04:53:32;6.93;;;4.13;;
43817;SDS011;29868;47.360;18.984;2023-07-13T04:55:59;8.68;;;3.97;;
43817;SDS011;29868;47.360;18.984;2023-07-13T04:58:25;7.28;;;4.20;;
43817;SDS011;29868;47.360;18.984;2023-07-13T05:00:51;6.82;;;3.65;;
43817;SDS011;29868;47.360;18.984;2023-07-13T05:03:16;7.80;;;3.53;;
43817;SDS011;29868;47.360;18.984;2023-07-13T05:05:42;8.80;;;3.70;;
43817;SDS011;29868;47.360;18.984;2023-07-13T05:08:08;9.88;;;3.58;;
43817;SDS011;29868;47.360;18.984;2023-07-13T05:10:34;7.93;;;3.95;;
43817;SDS011;29868;47.360;18.984;2023-07-13T05:13:00;10.55;;;4.10;;
43817;SDS011;29868;47.360;18.984;2023-07-13T05:15:26;8.75;;;3.63;;
43817;SDS011;29868;47.360;18.984;2023-07-13T05:17:51;8.00;;;3.60;;
43817;SDS011;29868;47.360;18.984;2023-07-13T05:20:17;10.73;;;3.90;;
43817;SDS011;29868;47.360;18.984;2023-07-13T05:22:44;8.60;;;3.60;;
43817;SDS011;29868;47.360;18.984;2023-07-13T05:25:12;6.38;;;3.28;;
43817;SDS011;29868;47.360;18.984;2023-07-13T05:27:38;5.55;;;2.70;;
43817;SDS011;29868;47.360;18.984;2023-07-13T05:30:03;6.50;;;3.00;;
43817;SDS011;29868;47.360;18.984;2023-07-13T05:32:29;7.65;;;2.95;;
43817;SDS011;29868;47.360;18.984;2023-07-13T05:34:55;8.25;;;3.53;;
43817;SDS011;29868;47.360;18.984;2023-07-13T05:37:20;6.18;;;2.80;;
43817;SDS011;29868;47.360;18.984;2023-07-13T05:39:46;5.65;;;2.88;;
43817;SDS011;29868;47.360;18.984;2023-07-13T05:42:12;7.03;;;3.00;;
43817;SDS011;29868;47.360;18.984;2023-07-13T05:44:37;5.65;;;2.63;;
43817;SDS011;29868;47.360;18.984;2023-07-13T05:47:02;6.28;;;2.50;;
43817;SDS011;29868;47.360;18.984;2023-07-13T05:49:29;5.85;;;2.80;;
43817;SDS011;29868;47.360;18.984;2023-07-13T05:51:55;4.30;;;2.50;;
43817;SDS011;29868;47.360;18.984;2023-07-13T05:54:21;4.35;;;2.45;;
43817;SDS011;29868;47.360;18.984;2023-07-13T05:56:46;4.00;;;2.60;;
43817;SDS011;29868;47.360;18.984;2023-07-13T05:59:12;5.03;;;2.85;;
43817;SDS011;29868;47.360;18.984;2023-07-13T06:01:37;5.32;;;2.60;;
43817;SDS011;29868;47.360;18.984;2023-07-13T06:04:03;5.03;;;2.38;;
43817;SDS011;29868;47.360;18.984;2023-07-13T06:06:28;4.32;;;2.28;;
43817;SDS011;29868;47.360;18.984;2023-07-13T06:08:54;6.03;;;2.70;;
43817;SDS011;29868;47.360;18.984;2023-07-13T06:11:21;5.20;;;2.88;;
43817;SDS011;29868;47.360;18.984;2023-07-13T06:13:48;4.90;;;2.60;;
43817;SDS011;29868;47.360;18.984;2023-07-13T06:16:14;4.78;;;2.63;;
43817;SDS011;29868;47.360;18.984;2023-07-13T06:18:41;6.75;;;2.85;;
43817;SDS011;29868;47.360;18.984;2023-07-13T06:21:14;5.82;;;2.70;;
43817;SDS011;29868;47.360;18.984;2023-07-13T06:23:44;5.63;;;2.60;;
43817;SDS011;29868;47.360;18.984;2023-07-13T06:26:12;6.07;;;2.70;;
43817;SDS011;29868;47.360;18.984;2023-07-13T06:28:38;3.75;;;2.50;;
43817;SDS011;29868;47.360;18.984;2023-07-13T06:31:05;4.25;;;2.60;;
43817;SDS011;29868;47.360;18.984;2023-07-13T06:33:31;5.07;;;2.47;;
43817;SDS011;29868;47.360;18.984;2023-07-13T06:35:58;4.40;;;2.58;;
43817;SDS011;29868;47.360;18.984;2023-07-13T06:38:23;4.43;;;2.30;;
43817;SDS011;29868;47.360;18.984;2023-07-13T06:40:48;4.38;;;2.40;;
43817;SDS011;29868;47.360;18.984;2023-07-13T06:43:14;3.50;;;2.22;;
43817;SDS011;29868;47.360;18.984;2023-07-13T06:45:40;3.92;;;2.20;;
43817;SDS011;29868;47.360;18.984;2023-07-13T06:48:15;3.70;;;2.28;;
43817;SDS011;29868;47.360;18.984;2023-07-13T06:50:42;4.10;;;2.00;;
43817;SDS011;29868;47.360;18.984;2023-07-13T06:53:08;3.63;;;2.08;;
43817;SDS011;29868;47.360;18.984;2023-07-13T06:55:33;4.00;;;2.05;;
43817;SDS011;29868;47.360;18.984;2023-07-13T06:57:59;2.70;;;1.80;;
43817;SDS011;29868;47.360;18.984;2023-07-13T07:00:24;6.22;;;1.95;;
43817;SDS011;29868;47.360;18.984;2023-07-13T07:02:50;2.53;;;1.80;;
43817;SDS011;29868;47.360;18.984;2023-07-13T07:05:15;2.53;;;1.70;;
43817;SDS011;29868;47.360;18.984;2023-07-13T07:07:41;3.92;;;1.90;;
43817;SDS011;29868;47.360;18.984;2023-07-13T07:10:06;3.65;;;1.90;;
43817;SDS011;29868;47.360;18.984;2023-07-13T07:12:32;4.07;;;1.92;;
43817;SDS011;29868;47.360;18.984;2023-07-13T07:14:57;4.05;;;1.90;;
43817;SDS011;29868;47.360;18.984;2023-07-13T07:17:23;3.13;;;2.00;;
43817;SDS011;29868;47.360;18.984;2023-07-13T07:19:48;3.42;;;1.90;;
43817;SDS011;29868;47.360;18.984;2023-07-13T07:22:14;4.30;;;2.08;;
43817;SDS011;29868;47.360;18.984;2023-07-13T07:24:39;4.22;;;2.05;;
43817;SDS011;29868;47.360;18.984;2023-07-13T07:27:04;3.33;;;1.77;;
43817;SDS011;29868;47.360;18.984;2023-07-13T07:29:30;3.97;;;2.20;;
43817;SDS011;29868;47.360;18.984;2023-07-13T07:31:55;5.25;;;2.00;;
43817;SDS011;29868;47.360;18.984;2023-07-13T07:34:21;3.72;;;2.22;;
43817;SDS011;29868;47.360;18.984;2023-07-13T07:36:46;5.30;;;2.10;;
43817;SDS011;29868;47.360;18.984;2023-07-13T07:39:12;3.95;;;2.30;;
43817;SDS011;29868;47.360;18.984;2023-07-13T07:41:37;4.22;;;2.22;;
43817;SDS011;29868;47.360;18.984;2023-07-13T07:44:03;4.03;;;2.05;;
43817;SDS011;29868;47.360;18.984;2023-07-13T07:46:29;3.58;;;2.10;;
43817;SDS011;29868;47.360;18.984;2023-07-13T07:48:55;4.78;;;2.15;;
43817;SDS011;29868;47.360;18.984;2023-07-13T07:51:22;5.18;;;2.60;;
43817;SDS011;29868;47.360;18.984;2023-07-13T07:53:47;5.47;;;2.50;;
43817;SDS011;29868;47.360;18.984;2023-07-13T07:56:13;4.22;;;2.30;;
43817;SDS011;29868;47.360;18.984;2023-07-13T07:58:41;3.75;;;2.45;;
43817;SDS011;29868;47.360;18.984;2023-07-13T08:01:07;4.90;;;2.30;;
43817;SDS011;29868;47.360;18.984;2023-07-13T08:03:33;3.42;;;2.25;;
43817;SDS011;29868;47.360;18.984;2023-07-13T08:05:58;3.47;;;2.22;;
43817;SDS011;29868;47.360;18.984;2023-07-13T08:08:24;5.10;;;2.22;;
43817;SDS011;29868;47.360;18.984;2023-07-13T08:10:50;4.20;;;2.17;;
43817;SDS011;29868;47.360;18.984;2023-07-13T08:13:15;3.60;;;2.20;;
43817;SDS011;29868;47.360;18.984;2023-07-13T08:15:40;3.47;;;1.85;;
43817;SDS011;29868;47.360;18.984;2023-07-13T08:18:06;2.47;;;1.73;;
43817;SDS011;29868;47.360;18.984;2023-07-13T08:20:36;2.58;;;1.80;;
43817;SDS011;29868;47.360;18.984;2023-07-13T08:23:02;3.53;;;1.88;;
43817;SDS011;29868;47.360;18.984;2023-07-13T08:25:27;3.10;;;1.90;;
43817;SDS011;29868;47.360;18.984;2023-07-13T08:27:53;7.30;;;1.98;;
43817;SDS011;29868;47.360;18.984;2023-07-13T08:30:18;2.88;;;1.80;;
43817;SDS011;29868;47.360;18.984;2023-07-13T08:32:43;2.88;;;1.77;;
43817;SDS011;29868;47.360;18.984;2023-07-13T08:35:09;2.70;;;1.77;;
43817;SDS011;29868;47.360;18.984;2023-07-13T08:37:34;5.85;;;2.13;;
43817;SDS011;29868;47.360;18.984;2023-07-13T08:40:00;3.63;;;2.22;;
43817;SDS011;29868;47.360;18.984;2023-07-13T08:42:33;3.90;;;2.03;;
43817;SDS011;29868;47.360;18.984;2023-07-13T08:47:52;3.15;;;2.10;;
43817;SDS011;29868;47.360;18.984;2023-07-13T08:50:21;3.65;;;1.83;;
43817;SDS011;29868;47.360;18.984;2023-07-13T08:52:53;3.20;;;2.10;;
43817;SDS011;29868;47.360;18.984;2023-07-13T08:55:22;5.20;;;2.30;;
43817;SDS011;29868;47.360;18.984;2023-07-13T08:57:54;3.65;;;2.30;;
43817;SDS011;29868;47.360;18.984;2023-07-13T09:00:32;3.70;;;2.05;;
43817;SDS011;29868;47.360;18.984;2023-07-13T09:03:04;4.57;;;2.10;;
43817;SDS011;29868;47.360;18.984;2023-07-13T09:05:40;3.65;;;2.03;;
43817;SDS011;29868;47.360;18.984;2023-07-13T09:13:40;3.42;;;2.10;;
43817;SDS011;29868;47.360;18.984;2023-07-13T09:16:14;4.13;;;2.10;;
43817;SDS011;29868;47.360;18.984;2023-07-13T09:21:32;3.33;;;2.20;;
43817;SDS011;29868;47.360;18.984;2023-07-13T09:26:54;2.95;;;2.00;;
43817;SDS011;29868;47.360;18.984;2023-07-13T09:29:23;4.35;;;2.65;;
43817;SDS011;29868;47.360;18.984;2023-07-13T09:31:54;3.70;;;2.33;;
43817;SDS011;29868;47.360;18.984;2023-07-13T09:34:23;3.88;;;2.20;;
43817;SDS011;29868;47.360;18.984;2023-07-13T09:36:49;2.88;;;2.20;;
43817;SDS011;29868;47.360;18.984;2023-07-13T09:39:15;2.50;;;2.00;;
43817;SDS011;29868;47.360;18.984;2023-07-13T09:41:57;3.97;;;2.30;;
43817;SDS011;29868;47.360;18.984;2023-07-13T09:46:55;3.23;;;2.03;;
43817;SDS011;29868;47.360;18.984;2023-07-13T09:49:25;3.60;;;2.40;;
43817;SDS011;29868;47.360;18.984;2023-07-13T09:52:04;4.43;;;2.45;;
43817;SDS011;29868;47.360;18.984;2023-07-13T09:54:33;3.58;;;2.00;;
43817;SDS011;29868;47.360;18.984;2023-07-13T09:57:01;3.97;;;2.08;;
43817;SDS011;29868;47.360;18.984;2023-07-13T09:59:29;2.97;;;1.98;;
43817;SDS011;29868;47.360;18.984;2023-07-13T10:01:56;3.67;;;2.28;;
43817;SDS011;29868;47.360;18.984;2023-07-13T10:04:26;3.35;;;2.08;;
43817;SDS011;29868;47.360;18.984;2023-07-13T10:07:04;4.70;;;2.05;;
43817;SDS011;29868;47.360;18.984;2023-07-13T10:09:32;5.70;;;2.30;;
43817;SDS011;29868;47.360;18.984;2023-07-13T10:11:57;3.28;;;2.05;;
43817;SDS011;29868;47.360;18.984;2023-07-13T10:14:22;4.88;;;2.25;;
43817;SDS011;29868;47.360;18.984;2023-07-13T10:16:51;4.95;;;2.22;;
43817;SDS011;29868;47.360;18.984;2023-07-13T10:19:24;3.97;;;1.85;;
43817;SDS011;29868;47.360;18.984;2023-07-13T10:21:55;3.58;;;2.00;;
43817;SDS011;29868;47.360;18.984;2023-07-13T10:24:27;3.40;;;2.10;;
43817;SDS011;29868;47.360;18.984;2023-07-13T10:27:01;4.43;;;2.00;;
43817;SDS011;29868;47.360;18.984;2023-07-13T10:29:42;3.30;;;2.28;;
43817;SDS011;29868;47.360;18.984;2023-07-13T10:32:11;4.90;;;2.13;;
43817;SDS011;29868;47.360;18.984;2023-07-13T10:34:38;3.47;;;1.98;;
43817;SDS011;29868;47.360;18.984;2023-07-13T10:37:05;4.00;;;2.33;;
43817;SDS011;29868;47.360;18.984;2023-07-13T10:39:41;4.80;;;2.55;;
43817;SDS011;29868;47.360;18.984;2023-07-13T10:42:08;3.67;;;2.05;;
43817;SDS011;29868;47.360;18.984;2023-07-13T10:44:42;3.13;;;2.00;;
43817;SDS011;29868;47.360;18.984;2023-07-13T10:47:08;3.22;;;2.35;;
43817;SDS011;29868;47.360;18.984;2023-07-13T10:49:40;3.63;;;1.98;;
43817;SDS011;29868;47.360;18.984;2023-07-13T10:52:50;2.90;;;1.80;;
43817;SDS011;29868;47.360;18.984;2023-07-13T10:55:02;2.83;;;1.92;;
43817;SDS011;29868;47.360;18.984;2023-07-13T10:57:28;3.15;;;1.85;;
43817;SDS011;29868;47.360;18.984;2023-07-13T11:02:29;3.63;;;1.90;;
43817;SDS011;29868;47.360;18.984;2023-07-13T11:04:55;3.05;;;2.08;;
43817;SDS011;29868;47.360;18.984;2023-07-13T11:09:54;5.03;;;1.90;;
43817;SDS011;29868;47.360;18.984;2023-07-13T11:22:41;3.95;;;2.00;;
43817;SDS011;29868;47.360;18.984;2023-07-13T11:27:52;2.50;;;1.70;;
43817;SDS011;29868;47.360;18.984;2023-07-13T11:33:02;4.20;;;2.20;;
43817;SDS011;29868;47.360;18.984;2023-07-13T11:35:33;2.83;;;1.70;;
43817;SDS011;29868;47.360;18.984;2023-07-13T11:38:02;2.95;;;1.92;;
43817;SDS011;29868;47.360;18.984;2023-07-13T11:40:35;3.60;;;2.10;;
43817;SDS011;29868;47.360;18.984;2023-07-13T11:43:01;3.88;;;1.90;;
43817;SDS011;29868;47.360;18.984;2023-07-13T11:45:26;3.13;;;1.98;;
43817;SDS011;29868;47.360;18.984;2023-07-13T11:47:53;2.88;;;1.95;;
43817;SDS011;29868;47.360;18.984;2023-07-13T11:50:22;4.20;;;1.90;;
43817;SDS011;29868;47.360;18.984;2023-07-13T11:52:49;4.05;;;1.80;;
43817;SDS011;29868;47.360;18.984;2023-07-13T11:55:19;2.63;;;1.88;;
43817;SDS011;29868;47.360;18.984;2023-07-13T11:58:04;3.97;;;2.10;;
43817;SDS011;29868;47.360;18.984;2023-07-13T12:00:31;3.97;;;2.20;;
43817;SDS011;29868;47.360;18.984;2023-07-13T12:02:59;3.22;;;2.00;;
43817;SDS011;29868;47.360;18.984;2023-07-13T12:05:26;2.70;;;2.00;;
43817;SDS011;29868;47.360;18.984;2023-07-13T12:07:52;4.18;;;1.92;;
43817;SDS011;29868;47.360;18.984;2023-07-13T12:10:28;3.20;;;2.30;;
43817;SDS011;29868;47.360;18.984;2023-07-13T12:12:56;4.53;;;2.30;;
43817;SDS011;29868;47.360;18.984;2023-07-13T12:15:50;3.47;;;2.13;;
43817;SDS011;29868;47.360;18.984;2023-07-13T12:18:20;3.20;;;2.00;;
43817;SDS011;29868;47.360;18.984;2023-07-13T12:20:48;3.70;;;2.00;;
43817;SDS011;29868;47.360;18.984;2023-07-13T12:23:20;3.47;;;2.33;;
43817;SDS011;29868;47.360;18.984;2023-07-13T12:25:50;3.15;;;2.22;;
43817;SDS011;29868;47.360;18.984;2023-07-13T12:28:23;3.58;;;2.00;;
43817;SDS011;29868;47.360;18.984;2023-07-13T12:31:01;3.80;;;2.03;;
43817;SDS011;29868;47.360;18.984;2023-07-13T12:33:30;5.45;;;2.30;;
43817;SDS011;29868;47.360;18.984;2023-07-13T12:35:57;3.13;;;2.17;;
43817;SDS011;29868;47.360;18.984;2023-07-13T12:38:26;4.32;;;2.40;;
43817;SDS011;29868;47.360;18.984;2023-07-13T12:40:52;4.38;;;2.33;;
43817;SDS011;29868;47.360;18.984;2023-07-13T12:43:20;3.45;;;2.40;;
43817;SDS011;29868;47.360;18.984;2023-07-13T12:46:00;3.10;;;2.10;;
43817;SDS011;29868;47.360;18.984;2023-07-13T12:48:28;4.43;;;2.40;;
43817;SDS011;29868;47.360;18.984;2023-07-13T12:50:54;3.20;;;2.30;;
43817;SDS011;29868;47.360;18.984;2023-07-13T12:53:30;3.78;;;2.38;;
43817;SDS011;29868;47.360;18.984;2023-07-13T12:55:57;3.92;;;2.60;;
43817;SDS011;29868;47.360;18.984;2023-07-13T12:58:27;3.63;;;2.53;;
43817;SDS011;29868;47.360;18.984;2023-07-13T13:00:56;4.40;;;2.75;;
43817;SDS011;29868;47.360;18.984;2023-07-13T13:03:37;3.78;;;2.60;;
43817;SDS011;29868;47.360;18.984;2023-07-13T13:08:41;4.13;;;2.45;;
43817;SDS011;29868;47.360;18.984;2023-07-13T13:11:08;3.53;;;2.10;;
43817;SDS011;29868;47.360;18.984;2023-07-13T13:13:34;4.20;;;2.40;;
43817;SDS011;29868;47.360;18.984;2023-07-13T13:16:13;3.83;;;2.08;;
43817;SDS011;29868;47.360;18.984;2023-07-13T13:18:43;4.45;;;2.80;;
43817;SDS011;29868;47.360;18.984;2023-07-13T13:21:09;4.10;;;2.40;;
43817;SDS011;29868;47.360;18.984;2023-07-13T13:23:36;2.95;;;1.80;;
43817;SDS011;29868;47.360;18.984;2023-07-13T13:26:02;3.47;;;1.92;;
43817;SDS011;29868;47.360;18.984;2023-07-13T13:28:31;3.85;;;2.25;;
43817;SDS011;29868;47.360;18.984;2023-07-13T13:30:57;3.47;;;2.05;;
43817;SDS011;29868;47.360;18.984;2023-07-13T13:33:23;3.67;;;2.20;;
43817;SDS011;29868;47.360;18.984;2023-07-13T13:35:48;5.32;;;2.35;;
43817;SDS011;29868;47.360;18.984;2023-07-13T13:38:19;2.20;;;1.77;;
43817;SDS011;29868;47.360;18.984;2023-07-13T13:40:49;5.97;;;2.35;;
43817;SDS011;29868;47.360;18.984;2023-07-13T13:43:22;3.50;;;2.20;;
43817;SDS011;29868;47.360;18.984;2023-07-13T13:45:52;3.20;;;2.15;;
43817;SDS011;29868;47.360;18.984;2023-07-13T13:48:21;4.03;;;1.90;;
43817;SDS011;29868;47.360;18.984;2023-07-13T13:50:59;3.35;;;2.25;;
43817;SDS011;29868;47.360;18.984;2023-07-13T13:53:25;4.53;;;2.20;;
43817;SDS011;29868;47.360;18.984;2023-07-13T13:55:51;3.08;;;1.95;;
43817;SDS011;29868;47.360;18.984;2023-07-13T13:58:21;4.05;;;2.17;;
43817;SDS011;29868;47.360;18.984;2023-07-13T14:00:47;3.67;;;2.30;;
43817;SDS011;29868;47.360;18.984;2023-07-13T14:03:19;3.70;;;1.98;;
43817;SDS011;29868;47.360;18.984;2023-07-13T14:05:46;3.28;;;2.30;;
43817;SDS011;29868;47.360;18.984;2023-07-13T14:08:17;3.15;;;2.10;;
43817;SDS011;29868;47.360;18.984;2023-07-13T14:10:45;3.47;;;2.20;;
43817;SDS011;29868;47.360;18.984;2023-07-13T14:13:17;5.40;;;3.95;;
43817;SDS011;29868;47.360;18.984;2023-07-13T14:15:44;5.05;;;3.70;;
43817;SDS011;29868;47.360;18.984;2023-07-13T14:18:10;3.08;;;2.42;;
43817;SDS011;29868;47.360;18.984;2023-07-13T14:20:42;3.47;;;2.50;;
43817;SDS011;29868;47.360;18.984;2023-07-13T14:23:13;2.53;;;2.10;;
43817;SDS011;29868;47.360;18.984;2023-07-13T14:25:40;3.47;;;2.40;;
43817;SDS011;29868;47.360;18.984;2023-07-13T14:30:51;5.00;;;3.20;;
43817;SDS011;29868;47.360;18.984;2023-07-13T14:33:17;5.72;;;3.20;;
43817;SDS011;29868;47.360;18.984;2023-07-13T14:35:43;3.92;;;2.30;;
43817;SDS011;29868;47.360;18.984;2023-07-13T14:38:13;3.95;;;2.20;;
43817;SDS011;29868;47.360;18.984;2023-07-13T14:40:41;4.85;;;2.20;;
43817;SDS011;29868;47.360;18.984;2023-07-13T14:43:14;3.67;;;2.33;;
43817;SDS011;29868;47.360;18.984;2023-07-13T14:45:41;3.77;;;2.40;;
43817;SDS011;29868;47.360;18.984;2023-07-13T14:48:16;4.35;;;2.10;;
43817;SDS011;29868;47.360;18.984;2023-07-13T14:50:45;4.72;;;2.20;;
43817;SDS011;29868;47.360;18.984;2023-07-13T14:53:11;3.88;;;2.35;;
43817;SDS011;29868;47.360;18.984;2023-07-13T14:55:37;3.00;;;2.28;;
43817;SDS011;29868;47.360;18.984;2023-07-13T14:58:03;3.35;;;2.42;;
43817;SDS011;29868;47.360;18.984;2023-07-13T15:00:29;4.00;;;2.30;;
43817;SDS011;29868;47.360;18.984;2023-07-13T15:02:56;4.03;;;2.40;;
43817;SDS011;29868;47.360;18.984;2023-07-13T15:05:24;3.53;;;2.33;;
43817;SDS011;29868;47.360;18.984;2023-07-13T15:07:52;3.67;;;2.20;;
43817;SDS011;29868;47.360;18.984;2023-07-13T15:10:26;3.47;;;2.28;;
43817;SDS011;29868;47.360;18.984;2023-07-13T15:13:01;3.92;;;2.38;;
43817;SDS011;29868;47.360;18.984;2023-07-13T15:15:38;5.40;;;2.20;;
43817;SDS011;29868;47.360;18.984;2023-07-13T15:18:08;4.18;;;2.35;;